Time;durP1;ratioP1;P1;durP2;ratioP2;P2;SDS_P1;SDS_P2;PMS_P1;PMS_P2;Temp;Humidity;BMP_temperature;BMP_pressure;BME280_temperature;BME280_humidity;BME280_pressure;Samples;Min_cycle;Max_cycle;Signal;HPM_P1;HPM_P2
2023/08/11 00:01:41;;;;;;;8.95;5.20;;;20.00;67.00;;;;;;5000714;28;20628;-69
2023/08/11 00:04:06;;;;;;;8.05;4.80;;;20.00;67.10;;;;;;5001758;28;20026;-68
2023/08/11 00:06:32;;;;;;;9.25;4.25;;;20.00;67.00;;;;;;5000077;28;20566;-69
2023/08/11 00:08:59;;;;;;;6.43;4.18;;;20.00;66.90;;;;;;5001036;28;20096;-68
2023/08/11 00:11:24;;;;;;;7.68;4.82;;;20.00;67.00;;;;;;5001576;28;20515;-67
2023/08/11 00:13:50;;;;;;;7.55;4.75;;;20.00;66.90;;;;;;4997739;28;20026;-69
2023/08/11 00:16:15;;;;;;;7.82;4.93;;;20.00;67.00;;;;;;5000703;28;25363;-67
2023/08/11 00:18:41;;;;;;;8.18;4.30;;;20.00;67.00;;;;;;5001050;28;20084;-69
2023/08/11 00:21:07;;;;;;;6.47;4.20;;;20.00;66.90;;;;;;4995329;28;20501;-68
2023/08/11 00:23:35;;;;;;;6.63;4.75;;;20.00;66.90;;;;;;4998321;28;20069;-68
2023/08/11 00:26:01;;;;;;;8.68;5.28;;;20.00;67.10;;;;;;4998442;28;20027;-67
2023/08/11 00:28:27;;;;;;;7.32;4.38;;;20.00;66.90;;;;;;5000965;28;20083;-69
2023/08/11 00:30:54;;;;;;;6.63;4.22;;;20.00;67.10;;;;;;4999365;28;20069;-68
2023/08/11 00:33:20;;;;;;;7.25;4.85;;;20.00;67.00;;;;;;5002215;28;20493;-68
2023/08/11 00:35:45;;;;;;;6.72;4.18;;;20.00;67.00;;;;;;5000226;28;20022;-66
2023/08/11 00:38:11;;;;;;;7.68;4.53;;;20.00;66.80;;;;;;4999862;28;20038;-69
2023/08/11 00:40:36;;;;;;;5.47;4.05;;;20.00;67.00;;;;;;4998850;28;20030;-68
2023/08/11 00:43:02;;;;;;;5.97;4.13;;;20.00;66.80;;;;;;4998452;28;20096;-68
2023/08/11 00:45:28;;;;;;;9.40;4.25;;;20.00;67.00;;;;;;4998850;28;20118;-66
2023/08/11 00:47:54;;;;;;;4.53;3.47;;;20.00;67.00;;;;;;4998728;28;20037;-67
2023/08/11 00:50:20;;;;;;;7.28;4.53;;;20.00;67.00;;;;;;4999878;28;20030;-69
2023/08/11 00:52:45;;;;;;;5.63;3.85;;;20.00;67.10;;;;;;4995405;28;20532;-68
2023/08/11 00:55:12;;;;;;;6.57;4.28;;;20.00;66.90;;;;;;4996988;28;20122;-69
2023/08/11 00:57:39;;;;;;;5.32;3.85;;;20.00;67.50;;;;;;4998721;28;20029;-70
2023/08/11 01:00:12;;;;;;;6.50;4.20;;;20.00;66.90;;;;;;4998654;28;20053;-69
2023/08/11 01:02:42;;;;;;;6.00;3.50;;;20.00;67.40;;;;;;4998545;28;20113;-68
2023/08/11 01:05:12;;;;;;;5.93;4.22;;;20.00;66.80;;;;;;4999734;28;20026;-69
2023/08/11 01:07:50;;;;;;;6.15;4.25;;;20.00;66.90;;;;;;4998597;28;20048;-68
2023/08/11 01:10:27;;;;;;;5.88;4.38;;;20.00;66.90;;;;;;4998064;28;20804;-67
2023/08/11 01:13:17;;;;;;;6.72;4.20;;;20.00;66.80;;;;;;4995881;28;20038;-68
2023/08/11 01:15:52;;;;;;;7.10;4.25;;;20.00;66.60;;;;;;5000686;28;20034;-69
2023/08/11 01:18:21;;;;;;;6.72;3.92;;;20.00;66.90;;;;;;4999719;28;20041;-69
2023/08/11 01:20:51;;;;;;;6.60;4.20;;;20.00;67.10;;;;;;4995920;28;20096;-68
2023/08/11 01:23:23;;;;;;;5.22;3.45;;;20.00;66.80;;;;;;4995641;28;20068;-69
2023/08/11 01:25:50;;;;;;;6.28;3.88;;;19.90;66.70;;;;;;5001807;28;20123;-68
2023/08/11 01:28:15;;;;;;;6.80;3.03;;;19.90;66.90;;;;;;5000745;28;20401;-67
2023/08/11 01:30:41;;;;;;;5.30;3.83;;;19.90;66.90;;;;;;5001898;28;20034;-68
2023/08/11 01:33:07;;;;;;;6.05;3.63;;;19.90;66.80;;;;;;4998454;28;20031;-68
2023/08/11 01:35:32;;;;;;;6.32;3.90;;;19.90;67.00;;;;;;5001621;28;20018;-69
2023/08/11 01:37:59;;;;;;;6.93;3.47;;;19.90;67.00;;;;;;4999435;28;20464;-68
2023/08/11 01:40:26;;;;;;;6.35;3.55;;;19.90;67.00;;;;;;4998947;28;20421;-68
2023/08/11 01:42:54;;;;;;;6.72;3.85;;;19.90;66.90;;;;;;5002077;28;20022;-66
2023/08/11 01:45:21;;;;;;;5.43;3.72;;;19.90;66.80;;;;;;4999804;28;20026;-69
2023/08/11 01:47:48;;;;;;;5.00;3.45;;;19.90;66.90;;;;;;4998651;28;20517;-68
2023/08/11 01:50:14;;;;;;;4.53;4.03;;;19.90;66.90;;;;;;5003116;28;20125;-63
2023/08/11 01:52:43;;;;;;;4.85;3.67;;;19.90;67.00;;;;;;5004903;28;20041;-67
2023/08/11 01:55:13;;;;;;;5.35;3.15;;;19.90;67.00;;;;;;5006118;28;20030;-68
2023/08/11 01:57:40;;;;;;;6.28;3.80;;;19.80;66.90;;;;;;5009053;28;20038;-69
2023/08/11 02:00:13;;;;;;;5.70;3.20;;;19.90;67.10;;;;;;4998365;28;20030;-68
2023/08/11 02:02:39;;;;;;;5.78;3.15;;;19.90;67.10;;;;;;4997938;28;20049;-66
2023/08/11 02:05:11;;;;;;;6.50;3.67;;;19.90;67.00;;;;;;5000375;28;20257;-68
2023/08/11 02:07:37;;;;;;;4.55;3.03;;;19.80;67.00;;;;;;4999104;28;20307;-67
2023/08/11 02:10:03;;;;;;;4.88;3.67;;;19.80;67.00;;;;;;5003915;28;20578;-68
2023/08/11 02:12:29;;;;;;;5.85;3.45;;;19.80;67.70;;;;;;5004232;28;20121;-66
2023/08/11 02:14:55;;;;;;;5.30;3.03;;;19.80;67.10;;;;;;5001201;28;20117;-68
2023/08/11 02:17:20;;;;;;;4.38;3.15;;;19.80;67.00;;;;;;5004382;28;20394;-68
2023/08/11 02:19:46;;;;;;;6.32;3.50;;;19.80;67.10;;;;;;5003189;28;20077;-68
2023/08/11 02:22:11;;;;;;;6.18;3.60;;;19.80;67.10;;;;;;5000360;28;20038;-68
2023/08/11 02:24:37;;;;;;;4.85;2.85;;;19.80;67.10;;;;;;5001401;28;20053;-68
2023/08/11 02:27:03;;;;;;;3.75;2.50;;;19.90;67.20;;;;;;5002266;28;20398;-68
2023/08/11 02:29:28;;;;;;;7.03;3.35;;;19.90;67.20;;;;;;5002388;28;20488;-67
2023/08/11 02:31:54;;;;;;;4.53;3.15;;;19.80;67.10;;;;;;5003345;28;20041;-68
2023/08/11 02:34:19;;;;;;;5.22;3.03;;;19.90;67.10;;;;;;5001539;28;20036;-69
2023/08/11 02:36:45;;;;;;;5.25;3.10;;;19.90;67.10;;;;;;5001005;28;20117;-69
2023/08/11 02:39:10;;;;;;;5.15;3.60;;;19.90;67.10;;;;;;5001484;28;20034;-68
2023/08/11 02:41:36;;;;;;;3.92;2.83;;;19.80;67.10;;;;;;5003545;28;20616;-68
2023/08/11 02:44:02;;;;;;;4.25;2.88;;;19.90;67.10;;;;;;5001752;28;20050;-68
2023/08/11 02:46:27;;;;;;;3.97;3.20;;;19.90;67.10;;;;;;5005638;28;20026;-67
2023/08/11 02:48:53;;;;;;;4.38;3.00;;;19.80;66.90;;;;;;5001662;28;20029;-68
2023/08/11 02:51:19;;;;;;;4.45;3.17;;;19.80;67.00;;;;;;5004193;28;20084;-67
2023/08/11 02:53:44;;;;;;;4.72;3.05;;;19.80;66.90;;;;;;5008467;28;20290;-68
2023/08/11 02:56:15;;;;;;;4.22;3.10;;;19.80;67.10;;;;;;5004414;28;20041;-67
2023/08/11 02:58:41;;;;;;;4.93;3.40;;;19.80;67.10;;;;;;5004445;28;20554;-69
2023/08/11 03:01:07;;;;;;;4.63;2.90;;;19.80;67.00;;;;;;5003221;28;20401;-68
2023/08/11 03:03:33;;;;;;;4.28;2.67;;;19.80;67.00;;;;;;5008309;28;20022;-69
2023/08/11 03:05:58;;;;;;;4.90;3.30;;;19.80;67.00;;;;;;5001143;28;20034;-68
2023/08/11 03:08:24;;;;;;;6.03;2.70;;;19.80;67.00;;;;;;5005559;28;20469;-69
2023/08/11 03:10:49;;;;;;;6.50;3.67;;;19.70;67.00;;;;;;5001923;28;20393;-68
2023/08/11 03:13:16;;;;;;;4.35;2.53;;;19.80;67.00;;;;;;4995454;28;20314;-67
2023/08/11 03:15:42;;;;;;;5.40;3.15;;;19.80;66.90;;;;;;5001519;28;20389;-69
2023/08/11 03:18:09;;;;;;;3.95;2.55;;;19.80;67.00;;;;;;5000147;28;20022;-69
2023/08/11 03:20:35;;;;;;;3.92;3.05;;;19.70;67.00;;;;;;5003677;28;20456;-70
2023/08/11 03:23:03;;;;;;;2.67;2.25;;;19.80;67.10;;;;;;5000819;28;20030;-69
2023/08/11 03:25:29;;;;;;;4.88;3.05;;;19.80;67.20;;;;;;4999998;28;20455;-68
2023/08/11 03:27:56;;;;;;;4.78;2.70;;;19.70;67.00;;;;;;5002757;28;20033;-69
2023/08/11 03:30:22;;;;;;;3.78;2.88;;;19.80;67.20;;;;;;5001688;28;20493;-68
2023/08/11 03:32:48;;;;;;;3.67;2.50;;;19.80;67.10;;;;;;5001088;28;20044;-69
2023/08/11 03:35:14;;;;;;;4.72;2.75;;;19.80;67.20;;;;;;5001055;28;20041;-67
2023/08/11 03:37:39;;;;;;;3.47;2.70;;;19.80;67.20;;;;;;5002284;28;20033;-69
2023/08/11 03:40:09;;;;;;;3.35;2.78;;;19.80;67.20;;;;;;4984773;28;20034;-68
2023/08/11 03:42:34;;;;;;;3.45;2.75;;;19.80;67.10;;;;;;4995336;28;20029;-69
2023/08/11 03:45:00;;;;;;;4.75;2.95;;;19.70;67.10;;;;;;5000172;28;20080;-69
2023/08/11 03:47:26;;;;;;;3.63;2.60;;;19.70;67.10;;;;;;5002752;28;20093;-69
2023/08/11 03:49:51;;;;;;;4.28;2.83;;;19.70;67.10;;;;;;5001800;28;20037;-66
2023/08/11 03:52:17;;;;;;;4.93;2.70;;;19.80;67.00;;;;;;5002360;28;20048;-69
2023/08/11 03:54:42;;;;;;;4.80;2.60;;;19.70;67.00;;;;;;5002534;28;20033;-68
2023/08/11 03:57:08;;;;;;;4.28;2.80;;;19.70;67.10;;;;;;4997405;28;20118;-68
2023/08/11 03:59:34;;;;;;;4.53;2.60;;;19.70;67.10;;;;;;4999796;28;20449;-67
2023/08/11 04:02:00;;;;;;;4.53;2.90;;;19.80;67.00;;;;;;4998680;28;20241;-69
2023/08/11 04:04:26;;;;;;;4.70;2.42;;;19.70;67.00;;;;;;5000390;28;20045;-68
2023/08/11 04:06:52;;;;;;;3.70;2.60;;;19.70;66.90;;;;;;5000531;28;20061;-67
2023/08/11 04:09:18;;;;;;;5.03;2.63;;;19.70;67.10;;;;;;4999039;28;20069;-68
2023/08/11 04:11:43;;;;;;;3.67;2.70;;;19.70;66.90;;;;;;4999674;28;20401;-68
2023/08/11 04:14:09;;;;;;;4.35;2.70;;;19.80;67.10;;;;;;4997225;28;20038;-69
2023/08/11 04:16:34;;;;;;;4.50;2.60;;;19.70;67.10;;;;;;5001901;28;20076;-68
2023/08/11 04:19:00;;;;;;;3.15;2.40;;;19.70;66.90;;;;;;5001849;28;20046;-67
2023/08/11 04:21:25;;;;;;;3.55;2.97;;;19.80;67.10;;;;;;5002511;28;20542;-69
2023/08/11 04:23:51;;;;;;;3.78;2.47;;;19.80;67.00;;;;;;4999824;28;20440;-69
2023/08/11 04:26:17;;;;;;;4.82;2.60;;;19.70;66.90;;;;;;5001167;28;20053;-68
2023/08/11 04:28:43;;;;;;;3.50;2.55;;;19.70;66.90;;;;;;4998283;28;20037;-70
2023/08/11 04:31:09;;;;;;;4.60;2.55;;;19.70;66.90;;;;;;4999718;28;20038;-68
2023/08/11 04:33:35;;;;;;;3.80;2.70;;;19.80;67.60;;;;;;4998922;28;20176;-69
2023/08/11 04:36:02;;;;;;;3.03;2.30;;;19.80;66.90;;;;;;5001831;28;20117;-67
2023/08/11 04:38:30;;;;;;;3.75;2.80;;;19.80;66.80;;;;;;5000566;28;20077;-68
2023/08/11 04:40:57;;;;;;;3.15;2.25;;;19.80;66.70;;;;;;4996534;28;20118;-68
2023/08/11 04:43:22;;;;;;;3.20;2.47;;;19.90;66.90;;;;;;4997751;28;20029;-69
2023/08/11 04:45:49;;;;;;;3.00;2.25;;;19.90;66.70;;;;;;4998015;28;20088;-69
2023/08/11 04:48:14;;;;;;;3.47;2.63;;;19.90;66.60;;;;;;5000574;28;20037;-68
2023/08/11 04:50:40;;;;;;;4.65;3.03;;;19.90;66.50;;;;;;5000216;28;20026;-70
2023/08/11 04:53:06;;;;;;;5.55;2.90;;;19.90;66.40;;;;;;5001010;28;20056;-69
2023/08/11 04:55:31;;;;;;;5.25;2.97;;;19.90;66.40;;;;;;4998879;28;20529;-68
2023/08/11 04:57:57;;;;;;;3.30;2.60;;;20.00;66.40;;;;;;5000433;28;20034;-69
2023/08/11 05:00:23;;;;;;;3.75;2.78;;;20.00;66.50;;;;;;4995205;28;20041;-67
2023/08/11 05:02:51;;;;;;;3.20;2.35;;;20.00;66.50;;;;;;4994840;28;20121;-67
2023/08/11 05:05:19;;;;;;;2.30;2.10;;;20.00;66.40;;;;;;4999396;28;20034;-69
2023/08/11 05:07:45;;;;;;;3.38;2.60;;;20.00;66.50;;;;;;5000101;28;20504;-67
2023/08/11 05:10:10;;;;;;;3.83;3.08;;;20.00;66.40;;;;;;4999527;28;20117;-68
2023/08/11 05:12:36;;;;;;;3.05;2.67;;;20.00;66.40;;;;;;4999031;28;20359;-67
2023/08/11 05:15:03;;;;;;;5.60;3.03;;;20.00;66.40;;;;;;4999817;28;20038;-68
2023/08/11 05:17:29;;;;;;;4.97;2.92;;;20.00;66.50;;;;;;5000141;28;20045;-68
2023/08/11 05:19:55;;;;;;;7.18;2.88;;;20.00;66.30;;;;;;5000776;28;20049;-70
2023/08/11 05:22:20;;;;;;;3.20;2.72;;;20.00;66.50;;;;;;5000618;28;20030;-67
2023/08/11 05:24:46;;;;;;;5.60;3.50;;;20.10;66.50;;;;;;4996780;28;20026;-66
2023/08/11 05:27:14;;;;;;;7.13;3.83;;;20.10;66.60;;;;;;5000085;28;20039;-68
2023/08/11 05:29:39;;;;;;;7.53;3.60;;;20.10;66.50;;;;;;4996427;28;20038;-68
2023/08/11 05:32:05;;;;;;;5.25;3.42;;;20.10;66.70;;;;;;5001241;28;20401;-70
2023/08/11 05:34:30;;;;;;;8.25;2.92;;;20.10;66.90;;;;;;4999929;28;20038;-66
2023/08/11 05:36:57;;;;;;;5.10;3.20;;;20.20;66.90;;;;;;4999825;28;20036;-69
2023/08/11 05:39:23;;;;;;;7.85;3.10;;;20.20;67.00;;;;;;5017215;28;20129;-67
2023/08/11 05:41:48;;;;;;;5.70;3.15;;;20.20;66.80;;;;;;4998097;28;20496;-67
2023/08/11 05:44:14;;;;;;;5.70;3.50;;;20.10;66.90;;;;;;4998443;28;20444;-66
2023/08/11 05:46:39;;;;;;;4.50;3.13;;;20.20;66.90;;;;;;4997266;28;20053;-69
2023/08/11 05:49:05;;;;;;;5.40;3.40;;;20.20;66.80;;;;;;5000601;28;20041;-68
2023/08/11 05:51:30;;;;;;;4.45;3.38;;;20.20;66.80;;;;;;4999912;28;20505;-66
2023/08/11 05:53:56;;;;;;;4.13;3.17;;;20.20;66.90;;;;;;4998872;28;20113;-67
2023/08/11 05:56:21;;;;;;;5.95;2.65;;;20.20;66.80;;;;;;4999787;28;20225;-68
2023/08/11 05:58:47;;;;;;;4.65;2.78;;;20.20;66.80;;;;;;4995573;28;20030;-68
2023/08/11 06:01:12;;;;;;;6.13;3.17;;;20.20;66.80;;;;;;4996910;28;20026;-67
2023/08/11 06:03:38;;;;;;;7.13;3.00;;;20.20;66.80;;;;;;4996761;28;20057;-69
2023/08/11 06:06:04;;;;;;;6.97;2.90;;;20.20;66.70;;;;;;4998423;28;20404;-69
2023/08/11 06:08:30;;;;;;;6.28;3.13;;;20.20;66.60;;;;;;4999079;28;20393;-68
2023/08/11 06:10:56;;;;;;;7.15;2.88;;;20.20;66.60;;;;;;4999826;28;20018;-69
2023/08/11 06:13:24;;;;;;;6.45;3.38;;;20.20;66.80;;;;;;4999426;28;20036;-67
2023/08/11 06:15:50;;;;;;;5.53;2.83;;;20.20;66.90;;;;;;4996329;28;20322;-69
2023/08/11 06:18:17;;;;;;;6.00;3.25;;;20.20;67.00;;;;;;5000607;28;20026;-69
2023/08/11 06:20:43;;;;;;;6.72;3.60;;;20.20;67.10;;;;;;5003619;28;20555;-69
2023/08/11 06:23:09;;;;;;;3.88;3.00;;;20.20;68.20;;;;;;5002874;28;20032;-69
2023/08/11 06:25:34;;;;;;;7.13;2.78;;;20.10;67.60;;;;;;5004882;28;20030;-69
2023/08/11 06:28:00;;;;;;;6.80;3.08;;;20.10;67.40;;;;;;5002796;28;20026;-69
2023/08/11 06:30:28;;;;;;;5.60;2.60;;;20.10;66.90;;;;;;5000762;28;20022;-69
2023/08/11 06:32:53;;;;;;;4.97;2.90;;;20.10;66.30;;;;;;4998518;28;20034;-69
2023/08/11 06:35:19;;;;;;;3.95;2.42;;;20.10;66.30;;;;;;4995636;28;20035;-70
2023/08/11 06:37:45;;;;;;;5.22;2.75;;;20.10;66.30;;;;;;5003508;28;20036;-69
2023/08/11 06:40:11;;;;;;;6.70;3.47;;;20.10;66.20;;;;;;4995863;28;20092;-69
2023/08/11 06:42:38;;;;;;;6.15;3.13;;;20.10;66.30;;;;;;5004788;28;20037;-71
2023/08/11 06:45:04;;;;;;;6.30;2.90;;;20.10;66.30;;;;;;5005317;28;20492;-67
2023/08/11 06:47:31;;;;;;;6.80;2.95;;;20.00;66.20;;;;;;5005055;28;20034;-69
2023/08/11 06:49:57;;;;;;;8.15;3.15;;;20.00;65.80;;;;;;4999941;28;20030;-69
2023/08/11 06:52:22;;;;;;;7.47;2.75;;;20.00;66.20;;;;;;5005397;28;20045;-70
2023/08/11 06:54:48;;;;;;;6.47;2.67;;;20.00;66.20;;;;;;5005154;28;20041;-70
2023/08/11 06:57:14;;;;;;;7.22;3.00;;;20.10;66.10;;;;;;5009399;28;20042;-70
2023/08/11 06:59:39;;;;;;;7.68;2.92;;;20.00;66.30;;;;;;5004379;28;20033;-69
2023/08/11 07:02:05;;;;;;;6.53;2.97;;;20.00;66.30;;;;;;5004067;28;20034;-70
2023/08/11 07:04:31;;;;;;;7.00;3.17;;;20.00;66.30;;;;;;5004414;28;20052;-67
2023/08/11 07:06:56;;;;;;;4.88;2.25;;;20.00;65.20;;;;;;5004370;28;20783;-67
2023/08/11 07:09:22;;;;;;;7.43;2.95;;;20.00;63.70;;;;;;5002562;28;20519;-69
2023/08/11 07:11:48;;;;;;;5.03;2.78;;;20.00;63.40;;;;;;4996658;28;20034;-69
2023/08/11 07:14:14;;;;;;;4.80;2.38;;;20.00;64.50;;;;;;4997422;28;20109;-68
2023/08/11 07:16:39;;;;;;;6.50;2.40;;;20.00;63.10;;;;;;5006646;28;20500;-68
2023/08/11 07:19:06;;;;;;;6.60;2.88;;;20.00;64.60;;;;;;4999735;28;20452;-69
2023/08/11 07:21:31;;;;;;;10.93;3.65;;;20.00;64.50;;;;;;4998413;28;20496;-69
2023/08/11 07:23:57;;;;;;;8.85;3.17;;;20.00;65.60;;;;;;5002443;28;20030;-68
2023/08/11 07:26:22;;;;;;;13.73;3.30;;;20.00;65.00;;;;;;5000246;28;20029;-68
2023/08/11 07:28:48;;;;;;;16.70;5.30;;;20.00;65.30;;;;;;5001864;28;20076;-68
2023/08/11 07:31:13;;;;;;;13.70;4.22;;;20.00;65.80;;;;;;5000876;28;20052;-69
2023/08/11 07:33:39;;;;;;;11.27;3.75;;;20.00;66.20;;;;;;5000146;28;20029;-70
2023/08/11 07:36:06;;;;;;;11.05;2.92;;;20.10;66.40;;;;;;4999961;28;20023;-69
2023/08/11 07:38:31;;;;;;;10.07;3.55;;;20.00;66.10;;;;;;5001560;28;20586;-70
2023/08/11 07:40:57;;;;;;;9.65;3.25;;;20.10;66.30;;;;;;4999637;28;20034;-69
2023/08/11 07:43:23;;;;;;;9.15;3.20;;;20.10;65.10;;;;;;5000479;28;20442;-69
2023/08/11 07:45:48;;;;;;;8.25;3.10;;;20.00;64.30;;;;;;4999418;28;20026;-67
2023/08/11 07:48:14;;;;;;;8.30;2.97;;;20.10;63.90;;;;;;4994239;28;20057;-68
2023/08/11 07:50:39;;;;;;;7.05;2.92;;;20.10;65.30;;;;;;4997043;28;20049;-68
2023/08/11 07:53:05;;;;;;;8.40;3.25;;;20.10;65.60;;;;;;4996492;28;20354;-68
2023/08/11 07:55:31;;;;;;;6.22;2.97;;;20.10;65.80;;;;;;4999993;28;20058;-69
2023/08/11 07:57:56;;;;;;;4.47;2.70;;;20.10;66.00;;;;;;4997174;28;20034;-68
2023/08/11 08:00:25;;;;;;;8.23;2.80;;;20.10;65.80;;;;;;5001951;28;20054;-69
2023/08/11 08:02:52;;;;;;;6.10;2.67;;;20.10;65.60;;;;;;4996377;28;20041;-68
2023/08/11 08:05:18;;;;;;;5.93;2.17;;;20.10;65.00;;;;;;4998467;28;20034;-69
2023/08/11 08:07:44;;;;;;;8.45;2.97;;;20.10;65.20;;;;;;5000714;28;20038;-69
2023/08/11 08:10:11;;;;;;;6.70;2.50;;;20.10;65.70;;;;;;5000599;28;20046;-69
2023/08/11 08:12:38;;;;;;;5.18;3.05;;;20.10;65.90;;;;;;4999278;28;20034;-69
2023/08/11 08:15:06;;;;;;;5.28;2.15;;;20.10;65.90;;;;;;4997869;28;20501;-67
2023/08/11 08:17:32;;;;;;;6.38;2.10;;;20.10;66.00;;;;;;4996399;28;20281;-70
2023/08/11 08:19:57;;;;;;;7.55;2.67;;;20.10;65.90;;;;;;4999561;28;20085;-68
2023/08/11 08:22:23;;;;;;;4.85;2.15;;;20.10;65.90;;;;;;5001178;28;20778;-68
2023/08/11 08:24:49;;;;;;;2.20;1.55;;;20.00;65.80;;;;;;5001023;28;20040;-66
2023/08/11 08:27:17;;;;;;;4.97;2.67;;;20.00;63.00;;;;;;5003141;28;20048;-68
2023/08/11 08:29:42;;;;;;;7.80;2.10;;;20.10;64.30;;;;;;5000315;28;20026;-67
2023/08/11 08:32:08;;;;;;;3.17;2.17;;;20.00;61.30;;;;;;5002264;28;20095;-70
2023/08/11 08:34:33;;;;;;;3.70;2.15;;;20.00;63.60;;;;;;5002627;28;20042;-67
2023/08/11 08:36:59;;;;;;;5.10;1.67;;;20.00;63.70;;;;;;5000225;28;20113;-68
2023/08/11 08:39:24;;;;;;;5.63;2.10;;;20.00;62.70;;;;;;5001348;28;20513;-66
2023/08/11 08:41:52;;;;;;;3.45;2.10;;;20.10;63.10;;;;;;5000504;28;20040;-70
2023/08/11 08:44:19;;;;;;;6.22;1.98;;;20.10;64.40;;;;;;4999736;28;20035;-69
2023/08/11 08:46:46;;;;;;;6.05;1.90;;;20.00;61.30;;;;;;4995508;28;20085;-70
2023/08/11 08:49:22;;;;;;;9.52;2.00;;;20.00;58.80;;;;;;4996757;28;20448;-69
2023/08/11 08:51:48;;;;;;;3.20;2.20;;;20.00;61.10;;;;;;5000726;28;20034;-70
2023/08/11 08:54:13;;;;;;;5.50;1.92;;;20.00;62.40;;;;;;5000391;28;20469;-71
2023/08/11 08:56:39;;;;;;;4.53;1.88;;;20.00;63.00;;;;;;5000798;28;20044;-68
2023/08/11 08:59:06;;;;;;;7.30;2.10;;;20.00;63.40;;;;;;4992830;28;20037;-67
2023/08/11 09:01:33;;;;;;;10.40;2.03;;;20.00;64.00;;;;;;4998657;28;20065;-69
2023/08/11 09:03:59;;;;;;;5.63;2.20;;;20.00;63.30;;;;;;4999138;28;20129;-68
2023/08/11 09:06:26;;;;;;;6.07;2.55;;;20.00;63.60;;;;;;4998673;28;20161;-69
2023/08/11 09:08:52;;;;;;;9.05;2.15;;;20.00;64.30;;;;;;4999075;28;20513;-69
2023/08/11 09:11:19;;;;;;;5.85;2.10;;;20.10;64.80;;;;;;4998184;28;20038;-69
2023/08/11 09:13:45;;;;;;;4.72;2.13;;;20.10;63.30;;;;;;4997038;28;20026;-68
2023/08/11 09:16:14;;;;;;;3.33;1.98;;;20.10;64.10;;;;;;4993295;28;20195;-67
2023/08/11 09:18:40;;;;;;;6.20;1.90;;;20.10;64.80;;;;;;4998367;28;20516;-64
2023/08/11 09:21:06;;;;;;;5.82;2.17;;;20.10;65.10;;;;;;4996669;28;20168;-66
2023/08/11 09:23:35;;;;;;;7.43;2.20;;;20.10;65.10;;;;;;4999764;28;20124;-69
2023/08/11 09:26:01;;;;;;;6.45;2.40;;;20.10;62.30;;;;;;4999254;28;20316;-67
2023/08/11 09:28:27;;;;;;;7.38;2.17;;;20.10;63.80;;;;;;4995694;28;20670;-69
2023/08/11 09:30:54;;;;;;;4.38;2.00;;;20.10;64.90;;;;;;4999614;28;20121;-68
2023/08/11 09:33:24;;;;;;;5.68;2.15;;;20.10;63.60;;;;;;4995775;28;20034;-70
2023/08/11 09:35:50;;;;;;;3.95;2.10;;;20.10;62.20;;;;;;4996118;28;20049;-69
2023/08/11 09:38:15;;;;;;;5.03;1.83;;;20.10;62.30;;;;;;4998868;28;20501;-68
2023/08/11 09:40:41;;;;;;;7.32;2.75;;;20.10;63.60;;;;;;4997538;28;20030;-70
2023/08/11 09:43:07;;;;;;;6.05;2.35;;;20.00;63.10;;;;;;4997840;28;20129;-69
2023/08/11 09:45:33;;;;;;;4.72;2.63;;;20.00;63.00;;;;;;4996619;28;20100;-69
2023/08/11 09:47:59;;;;;;;5.10;2.25;;;20.00;63.40;;;;;;4998903;28;20136;-69
2023/08/11 09:50:30;;;;;;;6.43;2.30;;;20.10;64.20;;;;;;4995341;28;20131;-65
2023/08/11 09:52:58;;;;;;;5.82;2.00;;;20.00;63.10;;;;;;5006568;28;20034;-69
2023/08/11 09:55:25;;;;;;;5.63;3.08;;;20.10;63.70;;;;;;5006725;28;20037;-68
2023/08/11 09:57:52;;;;;;;5.65;1.83;;;20.10;63.90;;;;;;5000855;28;26060;-69
2023/08/11 10:00:19;;;;;;;7.32;3.15;;;20.10;63.00;;;;;;4995217;28;20042;-68
2023/08/11 10:02:58;;;;;;;8.23;2.85;;;20.10;63.60;;;;;;5004109;28;20034;-68
2023/08/11 10:05:28;;;;;;;7.43;2.55;;;20.10;64.90;;;;;;5004289;28;20489;-67
2023/08/11 10:07:55;;;;;;;8.85;2.33;;;20.10;64.20;;;;;;4992535;28;20509;-67
2023/08/11 10:10:22;;;;;;;7.13;2.40;;;20.10;64.60;;;;;;5005068;28;20493;-69
2023/08/11 10:13:00;;;;;;;4.57;2.40;;;20.10;65.20;;;;;;5000694;28;20278;-68
2023/08/11 10:15:29;;;;;;;6.13;2.47;;;20.10;65.50;;;;;;4995167;28;20045;-70
2023/08/11 10:17:54;;;;;;;5.25;2.28;;;20.10;64.10;;;;;;5000616;28;20045;-68
2023/08/11 10:20:21;;;;;;;6.85;2.30;;;20.10;62.20;;;;;;4999383;28;20030;-70
2023/08/11 10:22:48;;;;;;;3.03;1.88;;;20.10;63.10;;;;;;4996285;28;20100;-69
2023/08/11 10:25:15;;;;;;;4.00;1.95;;;20.10;63.30;;;;;;4994312;28;20479;-67
2023/08/11 10:27:41;;;;;;;3.40;2.03;;;20.10;63.00;;;;;;4999152;28;20104;-69
2023/08/11 10:30:10;;;;;;;4.55;2.17;;;20.20;62.90;;;;;;5002767;28;20026;-67
2023/08/11 10:32:36;;;;;;;3.88;2.10;;;20.20;63.50;;;;;;4999931;28;20044;-69
2023/08/11 10:35:03;;;;;;;3.95;1.85;;;20.20;63.20;;;;;;5004781;28;20030;-69
2023/08/11 10:37:31;;;;;;;4.22;2.15;;;20.20;61.50;;;;;;5001090;28;20527;-67
2023/08/11 10:40:23;;;;;;;2.70;1.92;;;20.20;62.90;;;;;;5003282;28;20029;-68
2023/08/11 10:42:51;;;;;;;3.28;2.08;;;20.20;63.20;;;;;;4998209;28;20045;-67
2023/08/11 10:45:19;;;;;;;6.18;2.42;;;20.20;63.20;;;;;;5001185;28;20030;-68
2023/08/11 10:47:52;;;;;;;5.30;1.90;;;20.20;62.20;;;;;;5001712;28;20531;-68
2023/08/11 10:50:19;;;;;;;3.80;2.30;;;20.20;63.90;;;;;;4998845;28;20041;-68
2023/08/11 10:52:47;;;;;;;3.50;1.65;;;20.20;63.70;;;;;;5000410;28;20113;-68
2023/08/11 10:55:15;;;;;;;4.78;2.17;;;20.20;63.30;;;;;;4998676;28;20478;-67
2023/08/11 10:57:41;;;;;;;2.83;2.00;;;20.20;63.40;;;;;;4999868;28;20041;-67
2023/08/11 11:00:09;;;;;;;2.47;1.83;;;20.20;60.90;;;;;;5000033;28;20038;-68
2023/08/11 11:02:35;;;;;;;4.30;1.90;;;20.20;62.20;;;;;;5002685;28;20061;-68
2023/08/11 11:05:01;;;;;;;3.70;1.95;;;20.20;61.60;;;;;;5000757;28;20104;-68
2023/08/11 11:07:27;;;;;;;6.10;2.28;;;20.20;62.10;;;;;;4998283;28;20046;-69
2023/08/11 11:09:53;;;;;;;2.55;1.83;;;20.20;62.50;;;;;;5001069;28;20038;-68
2023/08/11 11:12:19;;;;;;;6.43;1.80;;;20.20;62.60;;;;;;5000629;28;20420;-68
2023/08/11 11:14:45;;;;;;;5.47;2.40;;;20.20;62.20;;;;;;4998297;28;20038;-69
2023/08/11 11:17:10;;;;;;;3.00;1.75;;;20.20;61.70;;;;;;5000209;28;20038;-69
2023/08/11 11:19:36;;;;;;;3.13;1.92;;;20.20;61.10;;;;;;4998004;28;20037;-69
2023/08/11 11:22:02;;;;;;;4.22;2.20;;;20.20;61.00;;;;;;4998644;28;20052;-68
2023/08/11 11:24:27;;;;;;;4.43;2.05;;;20.20;61.60;;;;;;4997065;28;20041;-68
2023/08/11 11:26:53;;;;;;;3.88;2.03;;;20.20;62.20;;;;;;4997827;28;20460;-67
2023/08/11 11:29:28;;;;;;;3.55;1.95;;;20.20;62.50;;;;;;5002655;28;20044;-68
2023/08/11 11:31:53;;;;;;;5.38;2.03;;;20.20;62.30;;;;;;5001928;28;20050;-69
2023/08/11 11:34:20;;;;;;;4.43;1.88;;;20.20;61.60;;;;;;5002904;28;20623;-68
2023/08/11 11:36:46;;;;;;;3.05;2.00;;;20.20;62.40;;;;;;5002730;28;20034;-67
2023/08/11 11:39:13;;;;;;;3.45;2.28;;;20.20;62.70;;;;;;4999214;28;20034;-68
2023/08/11 11:41:38;;;;;;;3.17;2.13;;;20.30;62.30;;;;;;5002474;28;20029;-69
2023/08/11 11:44:04;;;;;;;5.35;2.13;;;20.20;62.10;;;;;;5001915;28;20034;-68
2023/08/11 11:46:32;;;;;;;3.58;2.45;;;20.20;62.00;;;;;;5001406;28;20037;-69
2023/08/11 11:49:01;;;;;;;4.63;1.92;;;20.30;62.00;;;;;;4998703;28;20030;-67
2023/08/11 11:51:29;;;;;;;2.40;1.90;;;20.30;62.00;;;;;;4998948;28;20416;-69
2023/08/11 11:53:58;;;;;;;4.70;2.00;;;20.30;62.00;;;;;;4995149;28;20022;-69
2023/08/11 11:56:27;;;;;;;2.95;2.13;;;20.30;62.40;;;;;;4994606;28;20040;-69
2023/08/11 11:58:55;;;;;;;2.75;1.90;;;20.30;63.10;;;;;;5002280;28;20042;-70
2023/08/11 12:01:25;;;;;;;2.38;1.92;;;20.30;63.40;;;;;;4999903;28;20030;-69
2023/08/11 12:03:52;;;;;;;6.55;2.13;;;20.20;63.60;;;;;;4995984;28;20408;-70
2023/08/11 12:06:18;;;;;;;3.97;2.35;;;20.30;63.00;;;;;;4999772;28;20069;-69
2023/08/11 12:08:45;;;;;;;3.83;2.20;;;20.30;61.90;;;;;;5004739;28;20037;-69
2023/08/11 12:11:12;;;;;;;2.22;1.92;;;20.30;62.00;;;;;;4996743;28;20041;-68
2023/08/11 12:13:39;;;;;;;4.03;2.42;;;20.30;62.50;;;;;;5006765;28;20037;-69
2023/08/11 12:16:07;;;;;;;3.95;2.00;;;20.30;62.60;;;;;;5001909;28;20363;-68
2023/08/11 12:18:33;;;;;;;5.90;1.90;;;20.30;62.60;;;;;;5001113;28;20162;-69
2023/08/11 12:21:00;;;;;;;3.25;2.38;;;20.30;62.10;;;;;;4996835;28;20110;-68
2023/08/11 12:23:27;;;;;;;3.47;1.95;;;20.30;61.90;;;;;;5000612;28;20472;-69
2023/08/11 12:25:52;;;;;;;4.28;2.38;;;20.30;61.10;;;;;;5001736;28;20498;-69
2023/08/11 12:28:19;;;;;;;2.85;1.92;;;20.30;61.10;;;;;;4999933;28;20041;-69
2023/08/11 12:30:44;;;;;;;2.85;2.13;;;20.30;61.40;;;;;;4994336;28;20037;-68
2023/08/11 12:33:10;;;;;;;4.80;2.05;;;20.30;61.70;;;;;;5001016;28;20042;-68
2023/08/11 12:35:35;;;;;;;5.55;2.20;;;20.30;61.90;;;;;;5001066;28;20034;-69
2023/08/11 12:38:01;;;;;;;4.18;2.30;;;20.30;61.80;;;;;;4998372;28;20034;-69
2023/08/11 12:40:28;;;;;;;3.08;1.50;;;20.30;62.00;;;;;;5006174;28;20030;-70
2023/08/11 12:42:54;;;;;;;4.68;2.05;;;20.30;62.50;;;;;;5006606;28;20431;-69